• Join FlightAware (Why Join?)
  • Login
  • US Flag 
12:15AM EDT


 

Airport Tracker/Info


-or-


 

Live Flight TrackerFlight Track Log ✈ NKS434 ✈ 31-Jan-2014 ✈ MNMG / MGA - KFLL

Flight Track Log - Related Links

Times and Time Zones

All times are in EST time to prevent confusion due to time zone crossing. See the NKS434 flight status page for this flight to view local times or setup timezone preferences in your user account.

Time Position Orientation Groundspeed Altitude Reporting Facility
EST Latitude Longitude Course Direction KTS MPH feet Rate Location/Type
05:14AM 22.9122 -81.5625 50° Northeast 475 547 33,900  Level Miami Center
05:15AM 23.0514 -81.5156 17° North 499 574 33,900  Level Miami Center
05:16AM 26.0667 -80.1500 50° Northeast  Level FlightAware Approximate
05:16AM 23.1906 -81.4711 16° North 504 580 33,900  Level Miami Center
05:17AM 26.0726 -80.1527 50° Northeast  Level Estimated
05:17AM 23.3297 -81.4261 17° North 510 587 33,900  Level Miami Center
05:18AM 26.0667 -80.1500 50° Northeast  Level FlightAware Approximate
05:18AM 23.4689 -81.3836 16° North 510 587 33,900  Level Miami Center
05:19AM 26.0726 -80.1527 50° Northeast  Level Estimated
05:19AM 23.6081 -81.3411 16° North 515 593 33,900  Level Miami Center
05:20AM 23.7533 -81.2939 17° North 520 598 33,900  Level Miami Center
05:21AM 23.8967 -81.2514 15° North 525 604 33,900  Level Miami Center
05:22AM 24.0397 -81.2131 14° North 525 604 33,900  Level Miami Center
05:23AM 24.1828 -81.1839 11° North 513 590 33,900 -480 Level Miami Center
05:24AM 24.3256 -81.1547 11° North 513 590 33,000 -1,860 Descending Miami Center
05:25AM 24.4683 -81.1300 North 513 590 30,200 -3,000 Descending Miami Center
05:26AM 24.6133 -81.0983 11° North 513 590 27,000 -2,820 Descending Miami Center
05:27AM 24.7542 -81.0711 10° North 513 590 24,600 -2,400 Descending Miami Center
05:28AM 24.8864 -81.0436 11° North 501 577 22,300 -2,340 Descending Miami Center
05:29AM 25.0144 -81.0181 10° North 485 558 20,000 -2,400 Descending Miami Center
05:30AM 25.1406 -80.9925 10° North 466 536 17,600 -2,340 Descending Miami Center
05:31AM 25.2183 -80.9769 10° North 452 520 16,100 -1,920 Descending Miami Center
05:31AM 25.2497 -80.9711 10° North 454 522 15,700 -2,460 Descending Miami Center
05:32AM 25.3211 -80.9572 10° North 439 505 14,100 -2,400 Descending Miami Center
05:32AM 25.3694 -80.9475 10° North 449 517 13,300 -2,460 Descending Miami Center
05:33AM 25.4408 -80.9314 12° North 417 480 11,600 -2,340 Descending Miami Center
05:33AM 25.4850 -80.9239 North 428 493 11,000 -600 Descending Miami Center
05:34AM 25.5503 -80.9006 18° North 417 480 11,000  Level Miami Center
05:34AM 25.5847 -80.8694 39° Northeast 414 476 11,000  Level Miami Center
05:35AM 25.6342 -80.8158 44° Northeast 416 479 11,000  Level Miami Center
05:35AM 25.6783 -80.8011 17° North 400 460 11,000 -420 Level Miami Center
05:36AM 25.7392 -80.7964 North 356 410 10,600 -840 Descending Miami Center
05:36AM 25.7789 -80.7931 North 377 434 10,200 -1,140 Descending Miami Center
05:37AM 25.8275 -80.7739 20° North 321 369 9,500 -1,200 Descending Miami Center
05:37AM 25.8531 -80.7492 41° Northeast 353 406 9,000 -1,440 Descending Miami Center
05:38AM 25.8775 -80.6992 61° Northeast 302 348 8,100 -1,440 Descending Miami Center
05:38AM 25.8992 -80.6675 53° Northeast 299 344 7,600 -1,440 Descending Miami Center
05:39AM 25.9233 -80.6267 57° Northeast 300 345 6,800 -1,440 Descending Miami Center
05:39AM 25.9469 -80.5928 52° Northeast 294 338 6,200 -1,440 Descending Miami Center
05:40AM 25.9797 -80.5361 57° Northeast 287 330 5,100 -1,440 Descending Miami Center
05:40AM 25.9928 -80.5203 47° Northeast 289 333 4,800 -1,260 Descending Miami Center
05:41AM 26.0167 -80.4794 57° Northeast 283 326 4,100 -1,080 Descending Miami Center
05:42AM 26.0647 -80.3953 58° Northeast 250 288 3,000 -660 Descending Miami Center
05:43AM 26.0747 -80.3264 81° East 213 245 2,700 -720 Descending Miami Center
05:44AM 26.0742 -80.2617 91° East 212 244 1,600 -960 Descending Miami Center
05:45AM 26.0753 -80.2106 89° East 132 152 800 -840 Descending Miami Center
05:47AM 26.0667 -80.1500 50° Northeast  Level FlightAware Approximate